createdAt,value
2022-11-08T00:00:41.556Z,1684.68
2022-11-08T00:03:09.721Z,1028.35
2022-11-08T00:05:55.343Z,1659.03
2022-11-08T00:08:42.542Z,1684.00
2022-11-08T00:11:28.258Z,1684.78
2022-11-08T00:13:59.487Z,1687.13
2022-11-08T00:16:27.795Z,1685.43
2022-11-08T00:18:55.819Z,1687.68
2022-11-08T00:21:23.943Z,1016.27
2022-11-08T00:23:53.331Z,1358.63
2022-11-08T00:26:21.378Z,1678.82
2022-11-08T00:28:49.516Z,1018.75
2022-11-08T00:31:17.627Z,1648.88
2022-11-08T00:33:45.786Z,1680.85
2022-11-08T00:36:13.846Z,1679.75
2022-11-08T00:38:43.671Z,1053.25
2022-11-08T00:41:13.360Z,1366.57
2022-11-08T00:43:41.591Z,1368.95
2022-11-08T00:46:09.780Z,1364.40
2022-11-08T00:48:38.283Z,1367.43
2022-11-08T00:51:07.972Z,1369.78
2022-11-08T00:53:37.989Z,1366.90
2022-11-08T00:56:07.911Z,1369.22
2022-11-08T00:58:37.396Z,1367.22
2022-11-08T01:01:11.219Z,1371.15
2022-11-08T01:03:39.602Z,1365.10
2022-11-08T01:06:09.414Z,1368.32
2022-11-08T01:08:37.656Z,1366.20
2022-11-08T01:11:07.584Z,1367.90
2022-11-08T01:13:37.393Z,1366.03
2022-11-08T01:16:10.681Z,1368.70
2022-11-08T01:18:39.188Z,1368.63
2022-11-08T01:21:07.871Z,1375.40
2022-11-08T01:23:36.558Z,1367.93
2022-11-08T01:26:06.845Z,1370.78
2022-11-08T01:28:35.564Z,1367.32
2022-11-08T01:31:10.992Z,1187.10
2022-11-08T01:33:39.681Z,1370.55
2022-11-08T01:36:08.608Z,1369.50
2022-11-08T01:38:37.389Z,1370.00
2022-11-08T01:41:06.253Z,1373.15
2022-11-08T01:43:40.322Z,1435.38
2022-11-08T01:46:36.996Z,1676.03
2022-11-08T01:49:31.060Z,1683.85
2022-11-08T01:52:09.403Z,1682.50
2022-11-08T01:54:41.747Z,1683.28
2022-11-08T01:57:14.482Z,1685.22
2022-11-08T01:59:45.746Z,1684.00
2022-11-08T02:02:15.964Z,1683.03
2022-11-08T02:04:45.021Z,1003.53
2022-11-08T02:07:14.644Z,1076.03
2022-11-08T02:09:45.778Z,1669.70
2022-11-08T02:12:15.623Z,1679.78
2022-11-08T02:14:44.007Z,1683.95
2022-11-08T02:17:12.713Z,1683.43
2022-11-08T02:19:44.632Z,1024.20
2022-11-08T02:22:21.488Z,1224.82
2022-11-08T02:24:51.011Z,1364.82
2022-11-08T02:27:19.211Z,1172.13
2022-11-08T02:29:47.448Z,1671.85
2022-11-08T02:32:15.574Z,1681.40
2022-11-08T02:34:47.476Z,1689.93
2022-11-08T02:37:17.816Z,1687.10
2022-11-08T02:39:46.540Z,1692.57
2022-11-08T02:42:18.587Z,1689.53
2022-11-08T02:44:46.698Z,1687.13
2022-11-08T02:47:15.088Z,1688.50
2022-11-08T02:49:44.253Z,1690.32
2022-11-08T02:52:12.288Z,1687.30
2022-11-08T02:54:40.531Z,1680.57
2022-11-08T02:57:08.551Z,1023.83
2022-11-08T02:59:38.002Z,1098.57
2022-11-08T03:02:06.361Z,1185.18
2022-11-08T03:04:34.942Z,1662.82
2022-11-08T03:07:05.094Z,1679.32
2022-11-08T03:09:33.138Z,1684.47
2022-11-08T03:12:01.398Z,1682.70
2022-11-08T03:14:29.481Z,1683.72
2022-11-08T03:16:58.957Z,1685.35
2022-11-08T03:19:27.006Z,1689.97
2022-11-08T03:21:55.065Z,1685.35
2022-11-08T03:24:23.086Z,1031.93
2022-11-08T03:26:51.105Z,1659.38
2022-11-08T03:29:19.254Z,1684.13
2022-11-08T03:31:47.343Z,1683.53
2022-11-08T03:34:16.789Z,1682.20
2022-11-08T03:36:44.815Z,1683.72
2022-11-08T03:39:12.938Z,1073.20
2022-11-08T03:41:40.966Z,1047.18
2022-11-08T03:44:09.193Z,1650.90
2022-11-08T03:46:37.306Z,1677.25
2022-11-08T03:49:05.469Z,1002.63
2022-11-08T03:51:35.033Z,1116.40
2022-11-08T03:54:03.121Z,1671.28
2022-11-08T03:56:31.929Z,1675.10
2022-11-08T03:59:00.084Z,1681.97
2022-11-08T04:01:28.259Z,1683.45
2022-11-08T04:03:56.491Z,1162.25
2022-11-08T04:06:24.557Z,1038.13
2022-11-08T04:08:54.048Z,1663.10
2022-11-08T04:11:39.752Z,1676.30
2022-11-08T04:14:26.593Z,1676.60
2022-11-08T04:16:54.781Z,1683.32
2022-11-08T04:19:40.733Z,1683.28
2022-11-08T04:22:11.013Z,1683.25
2022-11-08T04:24:40.614Z,1683.80
2022-11-08T04:27:08.783Z,1683.47
2022-11-08T04:29:36.817Z,1682.55
2022-11-08T04:32:05.160Z,1681.35
2022-11-08T04:34:33.247Z,986.60
2022-11-08T04:37:01.440Z,1031.13
2022-11-08T04:39:29.627Z,1133.32
2022-11-08T04:42:02.194Z,1151.45
2022-11-08T04:44:30.811Z,1146.53
2022-11-08T04:46:58.956Z,1664.53
2022-11-08T04:49:27.010Z,1677.05
2022-11-08T04:51:55.324Z,1685.55
2022-11-08T04:54:23.560Z,1683.55
2022-11-08T04:56:51.756Z,1685.95
2022-11-08T04:59:21.576Z,1685.05
2022-11-08T05:01:52.474Z,1688.95
2022-11-08T05:04:20.744Z,1009.30
2022-11-08T05:07:13.572Z,1058.93
2022-11-08T05:09:41.635Z,1667.50
2022-11-08T05:12:09.731Z,1678.95
2022-11-08T05:14:39.133Z,1681.43
2022-11-08T05:17:07.373Z,1685.40
2022-11-08T05:19:52.956Z,1683.55
2022-11-08T05:22:38.401Z,1687.10
2022-11-08T05:25:07.351Z,999.92
2022-11-08T05:27:35.776Z,1034.95
2022-11-08T05:30:06.173Z,1121.82
2022-11-08T05:32:34.287Z,1088.07
2022-11-08T05:35:02.433Z,1067.10
2022-11-08T05:37:30.478Z,1097.50
2022-11-08T05:39:58.621Z,1104.03
2022-11-08T05:42:26.683Z,1049.22
2022-11-08T05:44:54.822Z,1119.85
2022-11-08T05:47:24.344Z,1045.78
2022-11-08T05:49:52.447Z,1049.60
2022-11-08T05:52:20.511Z,1639.75
2022-11-08T05:54:48.563Z,1680.97
2022-11-08T05:57:21.200Z,1241.93
2022-11-08T05:59:50.288Z,1021.53
2022-11-08T06:02:18.915Z,1039.93
2022-11-08T06:04:48.365Z,1064.35
2022-11-08T06:07:16.630Z,1067.13
2022-11-08T06:09:44.648Z,1064.03
2022-11-08T06:12:14.519Z,1059.75
2022-11-08T06:14:42.717Z,1073.97
2022-11-08T06:17:10.841Z,1088.63
2022-11-08T06:19:38.892Z,1051.63
2022-11-08T06:22:08.368Z,1046.93
2022-11-08T06:24:36.515Z,1115.45
2022-11-08T06:27:05.736Z,1088.28
2022-11-08T06:29:33.775Z,1099.03
2022-11-08T06:32:01.812Z,1068.68
2022-11-08T06:34:29.786Z,1103.80
2022-11-08T06:36:59.397Z,1096.13
2022-11-08T06:39:28.906Z,1100.78
2022-11-08T06:41:57.217Z,1097.80
2022-11-08T06:44:25.346Z,1095.85
2022-11-08T06:46:55.719Z,1088.82
2022-11-08T06:49:24.600Z,1065.40
2022-11-08T06:51:53.075Z,1052.15
2022-11-08T06:54:25.805Z,1105.72
2022-11-08T06:57:00.302Z,1100.90
2022-11-08T06:59:29.557Z,1166.82
2022-11-08T07:01:57.937Z,1663.05
2022-11-08T07:04:26.018Z,1670.53
2022-11-08T07:06:54.336Z,1671.30
2022-11-08T07:09:22.384Z,1106.60
2022-11-08T07:11:51.153Z,1022.30
2022-11-08T07:14:20.989Z,1168.97
2022-11-08T07:16:49.118Z,1199.18
2022-11-08T07:19:17.266Z,1652.57
2022-11-08T07:21:45.382Z,1669.25
2022-11-08T07:24:13.705Z,1670.18
2022-11-08T07:26:42.013Z,1667.13
2022-11-08T07:29:15.670Z,1662.82
2022-11-08T07:31:45.670Z,1663.27
2022-11-08T07:34:38.751Z,1663.05
2022-11-08T07:37:06.816Z,1663.93
2022-11-08T07:39:34.834Z,1658.82
2022-11-08T07:42:02.919Z,1656.43
2022-11-08T07:44:31.478Z,1656.18
2022-11-08T07:47:00.930Z,1651.95
2022-11-08T07:49:29.039Z,1234.57
2022-11-08T07:51:57.137Z,1393.07
2022-11-08T07:54:25.237Z,1424.22
2022-11-08T07:56:53.211Z,1428.78
2022-11-08T07:59:21.289Z,1425.93
2022-11-08T08:01:49.414Z,1479.97
2022-11-08T08:04:18.881Z,1455.15
2022-11-08T08:06:46.992Z,1484.83
2022-11-08T08:09:15.045Z,1480.78
2022-11-08T08:11:43.116Z,1487.90
2022-11-08T08:14:11.103Z,1498.53
2022-11-08T08:16:39.275Z,1506.82
2022-11-08T08:19:07.545Z,1625.13
2022-11-08T08:21:36.971Z,1620.93
2022-11-08T08:24:05.487Z,1623.55
2022-11-08T08:26:33.551Z,1619.43
2022-11-08T08:29:01.534Z,1613.60
2022-11-08T08:31:29.657Z,1603.00
2022-11-08T08:33:57.773Z,1600.75
2022-11-08T08:36:25.782Z,1596.68
2022-11-08T08:38:55.119Z,1590.07
2022-11-08T08:41:23.310Z,1580.72
2022-11-08T08:43:51.312Z,1582.82
2022-11-08T08:46:19.419Z,1582.47
2022-11-08T08:48:47.537Z,1582.78
2022-11-08T08:51:15.591Z,1582.30
2022-11-08T08:53:43.655Z,1579.72
2022-11-08T08:56:13.288Z,1575.13
2022-11-08T08:58:41.529Z,1578.47
2022-11-08T09:01:40.850Z,1581.18
2022-11-08T09:03:59.752Z,1579.78
2022-11-08T09:06:27.821Z,1572.65
2022-11-08T09:08:55.868Z,1572.97
2022-11-08T09:11:25.219Z,1560.13
2022-11-08T09:13:53.296Z,1562.10
2022-11-08T09:16:21.364Z,1552.85
2022-11-08T09:18:49.436Z,1549.32
2022-11-08T09:21:17.577Z,1554.43
2022-11-08T09:23:45.605Z,1554.22
2022-11-08T09:26:13.636Z,1553.68
2022-11-08T09:28:43.006Z,1547.50
2022-11-08T09:31:13.087Z,1551.85
2022-11-08T09:33:42.252Z,1555.00
2022-11-08T09:36:14.105Z,1555.40
2022-11-08T09:38:42.563Z,1557.45
2022-11-08T09:41:27.925Z,1546.22
2022-11-08T09:44:12.255Z,1486.57
2022-11-08T09:46:48.793Z,1484.45
2022-11-08T09:49:20.527Z,1488.90
2022-11-08T09:51:49.487Z,1487.82
2022-11-08T09:54:24.520Z,1487.63
2022-11-08T09:56:55.398Z,1485.97
2022-11-08T09:59:39.118Z,1480.43
2022-11-08T10:02:17.893Z,1479.90
2022-11-08T10:04:50.302Z,1479.82
2022-11-08T10:07:30.261Z,1487.88
2022-11-08T10:10:28.563Z,1485.03
2022-11-08T10:13:05.794Z,1484.28
2022-11-08T10:15:43.454Z,1486.05
2022-11-08T10:18:32.365Z,1489.53
2022-11-08T10:21:11.405Z,1487.40
2022-11-08T10:23:45.284Z,1488.32
2022-11-08T10:26:21.633Z,1487.22
2022-11-08T10:28:56.296Z,1485.18
2022-11-08T10:31:29.421Z,1487.45
2022-11-08T10:33:59.663Z,1484.28
2022-11-08T10:36:32.538Z,1487.47
2022-11-08T10:39:04.838Z,1486.65
2022-11-08T10:41:41.300Z,1482.82
2022-11-08T10:44:16.249Z,1484.28
2022-11-08T10:46:47.596Z,1487.43
2022-11-08T10:49:20.087Z,1485.03
2022-11-08T10:51:50.293Z,1487.38
2022-11-08T10:54:47.697Z,1489.55
2022-11-08T10:57:17.623Z,1491.50
2022-11-08T10:59:46.861Z,1491.60
2022-11-08T11:02:23.085Z,1490.80
2022-11-08T11:04:52.455Z,1489.28
2022-11-08T11:07:29.612Z,1490.37
2022-11-08T11:09:57.705Z,1489.22
2022-11-08T11:12:25.760Z,1490.45
2022-11-08T11:14:58.820Z,1493.18
2022-11-08T11:17:37.277Z,1489.13
2022-11-08T11:20:22.229Z,1483.97
2022-11-08T11:22:51.875Z,1485.43
2022-11-08T11:25:21.734Z,1484.78
2022-11-08T11:27:56.031Z,1497.28
2022-11-08T11:30:30.491Z,1497.20
2022-11-08T11:33:02.981Z,1492.15
2022-11-08T11:35:45.184Z,1503.27
2022-11-08T11:38:25.003Z,1494.50
2022-11-08T11:40:56.506Z,1509.93
2022-11-08T11:43:32.332Z,1503.55
2022-11-08T11:46:06.436Z,1506.03
2022-11-08T11:48:42.342Z,1492.97
2022-11-08T11:51:11.849Z,1505.03
2022-11-08T11:53:47.515Z,1504.50
2022-11-08T11:56:42.373Z,1506.15
2022-11-08T11:59:41.129Z,1500.35
2022-11-08T12:02:42.935Z,1500.32
2022-11-08T12:05:40.685Z,1497.13
2022-11-08T12:08:26.605Z,1490.72
2022-11-08T12:11:12.494Z,1501.38
2022-11-08T12:13:54.357Z,1505.40
2022-11-08T12:16:28.899Z,1493.75
2022-11-08T12:19:09.397Z,1491.70
2022-11-08T12:21:49.223Z,1491.10
2022-11-08T12:24:41.786Z,1498.20
2022-11-08T12:27:21.191Z,1504.07
2022-11-08T12:29:58.821Z,1495.35
2022-11-08T12:32:48.292Z,1496.45
2022-11-08T12:35:29.424Z,1506.30
2022-11-08T12:38:23.151Z,1492.78
2022-11-08T12:40:58.584Z,1510.50
2022-11-08T12:43:47.363Z,1504.35
2022-11-08T12:46:18.417Z,1512.53
2022-11-08T12:49:11.394Z,1511.95
2022-11-08T12:51:52.462Z,1510.00
2022-11-08T12:54:52.575Z,1520.75
2022-11-08T12:57:28.014Z,1513.90
2022-11-08T13:00:04.565Z,1513.93
2022-11-08T13:02:36.746Z,1518.45
2022-11-08T13:05:10.598Z,1518.30
2022-11-08T13:07:45.928Z,1519.60
2022-11-08T13:10:31.416Z,1522.50
2022-11-08T13:13:12.961Z,1519.88
2022-11-08T13:16:12.862Z,1527.05
2022-11-08T13:18:46.267Z,1531.18
2022-11-08T13:21:41.076Z,1528.07
2022-11-08T13:24:45.412Z,1533.75
2022-11-08T13:27:33.717Z,1531.40
2022-11-08T13:30:21.803Z,1532.47
2022-11-08T13:32:56.250Z,1534.88
2022-11-08T13:35:31.876Z,1534.03
2022-11-08T13:38:12.893Z,1531.47
2022-11-08T13:40:55.967Z,1534.45
2022-11-08T13:43:29.451Z,1535.53
2022-11-08T13:46:17.769Z,1542.93
2022-11-08T13:49:05.518Z,1547.28
2022-11-08T13:51:34.541Z,1554.00
2022-11-08T13:54:04.370Z,1552.07
2022-11-08T13:56:48.715Z,1555.30
2022-11-08T13:59:59.195Z,1555.85
2022-11-08T14:02:44.465Z,1555.65
2022-11-08T14:05:30.854Z,1562.00
2022-11-08T14:08:22.033Z,1560.60
2022-11-08T14:11:31.183Z,1558.70
2022-11-08T14:14:16.988Z,1573.88
2022-11-08T14:17:08.412Z,1574.65
2022-11-08T14:19:39.612Z,1573.10
2022-11-08T14:22:16.412Z,1577.67
2022-11-08T14:24:44.841Z,1578.60
2022-11-08T14:27:14.467Z,1576.73
2022-11-08T14:29:43.622Z,1577.82
2022-11-08T14:32:19.967Z,1574.78
2022-11-08T14:34:49.472Z,1573.85
2022-11-08T14:37:26.229Z,1559.97
2022-11-08T14:39:55.102Z,1564.70
2022-11-08T14:42:25.774Z,1566.03
2022-11-08T14:44:56.732Z,1566.97
2022-11-08T14:47:27.053Z,1561.68
2022-11-08T14:49:56.650Z,1560.97
2022-11-08T14:52:29.633Z,1565.85
2022-11-08T14:55:05.368Z,1567.55
2022-11-08T14:57:36.605Z,1563.97
2022-11-08T15:00:14.551Z,1565.35
2022-11-08T15:02:45.431Z,1564.72
2022-11-08T15:05:31.601Z,1564.45
2022-11-08T15:08:00.764Z,1560.00
2022-11-08T15:10:29.653Z,1555.07
2022-11-08T15:12:58.305Z,1557.28
2022-11-08T15:15:34.698Z,1549.65
2022-11-08T15:18:17.320Z,1544.55
2022-11-08T15:20:57.027Z,1549.45
2022-11-08T15:23:27.568Z,1546.43
2022-11-08T15:25:58.187Z,1537.70
2022-11-08T15:28:31.889Z,1535.73
2022-11-08T15:31:03.574Z,1531.20
2022-11-08T15:33:36.462Z,1527.63
2022-11-08T15:36:15.941Z,1524.38
2022-11-08T15:38:48.699Z,1526.70
2022-11-08T15:41:36.780Z,1522.85
2022-11-08T15:44:16.711Z,1517.43
2022-11-08T15:46:45.022Z,1520.38
2022-11-08T15:49:21.146Z,1514.57
2022-11-08T15:51:51.836Z,1509.00
2022-11-08T15:54:21.121Z,1510.78
2022-11-08T15:56:52.945Z,1508.80
2022-11-08T15:59:24.167Z,1509.13
2022-11-08T16:01:55.182Z,1504.72
2022-11-08T16:04:23.368Z,1504.43
2022-11-08T16:06:52.770Z,1498.53
2022-11-08T16:09:21.042Z,1497.30
2022-11-08T16:11:50.362Z,1502.65
2022-11-08T16:14:20.593Z,1497.07
2022-11-08T16:16:49.039Z,1501.47
2022-11-08T16:19:21.876Z,1499.22
2022-11-08T16:21:50.100Z,1502.05
2022-11-08T16:24:19.620Z,1509.30
2022-11-08T16:26:48.746Z,1502.38
2022-11-08T16:29:21.933Z,1496.50
2022-11-08T16:31:50.474Z,1506.80
2022-11-08T16:34:18.800Z,1511.88
2022-11-08T16:36:49.266Z,1506.32
2022-11-08T16:39:22.307Z,1505.78
2022-11-08T16:41:50.374Z,1506.37
2022-11-08T16:44:18.643Z,1507.53
2022-11-08T16:46:46.947Z,1511.15
2022-11-08T16:49:22.890Z,1517.50
2022-11-08T16:51:51.206Z,1537.00
2022-11-08T16:54:24.012Z,1593.40
2022-11-08T16:57:03.422Z,1595.38
2022-11-08T16:59:40.320Z,1591.50
2022-11-08T17:02:20.350Z,1595.43
2022-11-08T17:04:48.397Z,1604.63
2022-11-08T17:07:16.558Z,1612.30
2022-11-08T17:09:45.962Z,1608.88
2022-11-08T17:12:14.078Z,1614.10
2022-11-08T17:14:42.245Z,1615.20
2022-11-08T17:17:12.109Z,1624.32
2022-11-08T17:19:40.411Z,1624.43
2022-11-08T17:22:08.841Z,1619.43
2022-11-08T17:24:37.874Z,1623.75
2022-11-08T17:27:07.302Z,1626.80
2022-11-08T17:29:35.322Z,1622.95
2022-11-08T17:32:03.512Z,1627.47
2022-11-08T17:34:31.662Z,1628.05
2022-11-08T17:36:59.807Z,1627.80
2022-11-08T17:39:27.814Z,1633.53
2022-11-08T17:41:55.945Z,1632.03
2022-11-08T17:44:26.164Z,1631.03
2022-11-08T17:46:54.694Z,1632.63
2022-11-08T17:49:23.172Z,1631.60
2022-11-08T17:51:52.491Z,1631.33
2022-11-08T17:54:20.676Z,1629.68
2022-11-08T17:56:48.861Z,1629.63
2022-11-08T17:59:16.827Z,1628.40
2022-11-08T18:01:46.428Z,1625.65
2022-11-08T18:04:14.625Z,1637.05
2022-11-08T18:06:42.653Z,1631.30
2022-11-08T18:09:11.421Z,1629.63
2022-11-08T18:11:39.688Z,1636.63
2022-11-08T18:14:07.675Z,1639.70
2022-11-08T18:16:37.607Z,1643.60
2022-11-08T18:19:07.009Z,1642.57
2022-11-08T18:21:35.131Z,1637.90
2022-11-08T18:24:04.523Z,1639.03
2022-11-08T18:26:33.006Z,1637.90
2022-11-08T18:29:02.569Z,1636.15
2022-11-08T18:31:32.777Z,1639.18
2022-11-08T18:34:01.884Z,1630.95
2022-11-08T18:36:31.920Z,1634.13
2022-11-08T18:39:00.906Z,1630.93
2022-11-08T18:41:31.543Z,1626.75
2022-11-08T18:44:02.118Z,1627.15
2022-11-08T18:46:40.231Z,1623.03
2022-11-08T18:49:11.803Z,1621.10
2022-11-08T18:51:41.530Z,1619.22
2022-11-08T18:54:09.658Z,1624.32
2022-11-08T18:56:38.356Z,1616.35
2022-11-08T18:59:06.628Z,1621.53
2022-11-08T19:01:34.975Z,1621.45
2022-11-08T19:04:04.745Z,1625.35
2022-11-08T19:06:35.053Z,1622.97
2022-11-08T19:09:05.656Z,1621.07
2022-11-08T19:11:33.693Z,1621.03
2022-11-08T19:14:02.315Z,1626.23
2022-11-08T19:16:30.553Z,1626.95
2022-11-08T19:18:58.600Z,1629.27
2022-11-08T19:21:28.476Z,1630.32
2022-11-08T19:23:59.107Z,1632.35
2022-11-08T19:26:30.094Z,1634.78
2022-11-08T19:28:59.184Z,1635.78
2022-11-08T19:31:27.576Z,1635.30
2022-11-08T19:33:56.185Z,1631.43
2022-11-08T19:36:25.934Z,1636.68
2022-11-08T19:38:54.917Z,1635.88
2022-11-08T19:41:24.389Z,1632.60
2022-11-08T19:43:54.992Z,1633.15
2022-11-08T19:46:25.974Z,1631.18
2022-11-08T19:48:54.418Z,1632.03
2022-11-08T19:51:24.632Z,1630.15
2022-11-08T19:53:55.898Z,1633.97
2022-11-08T19:56:43.328Z,1628.32
2022-11-08T19:59:14.150Z,1637.47
2022-11-08T20:01:42.381Z,1633.30
2022-11-08T20:04:12.639Z,1634.63
2022-11-08T20:06:42.164Z,1635.18
2022-11-08T20:09:13.178Z,1632.65
2022-11-08T20:11:42.360Z,1631.60
2022-11-08T20:14:14.079Z,1634.30
2022-11-08T20:16:46.813Z,1636.75
2022-11-08T20:19:18.934Z,1633.63
2022-11-08T20:21:47.142Z,1632.32
2022-11-08T20:24:16.009Z,1629.03
2022-11-08T20:26:44.359Z,1629.30
2022-11-08T20:29:14.706Z,1629.30
2022-11-08T20:31:43.328Z,1627.78
2022-11-08T20:34:13.084Z,1629.80
2022-11-08T20:36:43.882Z,1628.03
2022-11-08T20:39:13.056Z,1629.70
2022-11-08T20:41:41.296Z,1625.18
2022-11-08T20:44:10.912Z,1627.53
2022-11-08T20:46:40.519Z,1632.43
2022-11-08T20:49:09.271Z,1627.35
2022-11-08T20:51:37.335Z,1632.25
2022-11-08T20:54:05.603Z,1627.90
2022-11-08T20:56:33.710Z,1628.05
2022-11-08T20:59:02.699Z,1629.13
2022-11-08T21:01:32.792Z,1628.10
2022-11-08T21:04:02.784Z,1627.55
2022-11-08T21:06:35.927Z,1625.67
2022-11-08T21:09:31.071Z,1623.73
2022-11-08T21:11:54.113Z,1623.43
2022-11-08T21:14:23.623Z,1619.47
2022-11-08T21:19:41.204Z,1621.68
2022-11-08T21:22:18.270Z,1624.70
2022-11-08T21:24:48.249Z,1621.80
2022-11-08T21:27:16.898Z,1621.85
2022-11-08T21:29:45.090Z,1619.07
2022-11-08T21:32:13.278Z,1618.37
2022-11-08T21:34:45.947Z,1619.60
2022-11-08T21:37:15.617Z,1622.50
2022-11-08T21:39:43.845Z,1621.80
2022-11-08T21:42:11.888Z,1614.30
2022-11-08T21:44:39.948Z,1618.90
2022-11-08T21:47:08.076Z,1622.00
2022-11-08T21:49:36.057Z,1625.60
2022-11-08T21:52:06.021Z,1621.78
2022-11-08T21:54:34.202Z,1621.68
2022-11-08T21:57:02.224Z,1619.85
2022-11-08T21:59:30.294Z,1619.78
2022-11-08T22:01:58.430Z,1620.03
2022-11-08T22:04:26.506Z,1622.97
2022-11-08T22:06:54.708Z,1621.97
2022-11-08T22:09:24.178Z,1618.05
2022-11-08T22:11:52.453Z,1620.95
2022-11-08T22:14:20.613Z,1625.13
2022-11-08T22:16:48.602Z,1616.93
2022-11-08T22:19:16.726Z,1622.15
2022-11-08T22:21:46.156Z,1618.63
2022-11-08T22:24:17.182Z,1617.57
2022-11-08T22:26:47.981Z,1619.30
2022-11-08T22:29:17.133Z,1622.05
2022-11-08T22:31:45.778Z,1618.53
2022-11-08T22:34:13.992Z,1620.47
2022-11-08T22:36:46.031Z,1621.30
2022-11-08T22:39:15.320Z,1622.07
2022-11-08T22:41:43.695Z,1620.50
2022-11-08T22:44:13.612Z,1619.38
2022-11-08T22:46:42.793Z,1621.95
2022-11-08T22:49:11.189Z,1618.93
2022-11-08T22:51:39.873Z,1617.07
2022-11-08T22:54:08.805Z,1615.90
2022-11-08T22:56:37.447Z,1612.55
2022-11-08T22:59:05.647Z,1621.55
2022-11-08T23:01:35.449Z,1624.15
2022-11-08T23:04:03.865Z,1623.80
2022-11-08T23:06:32.189Z,1625.40
2022-11-08T23:09:00.259Z,1626.65
2022-11-08T23:11:46.740Z,1629.97
2022-11-08T23:14:36.858Z,1631.28
2022-11-08T23:17:08.113Z,1636.78
2022-11-08T23:19:53.882Z,1636.40
2022-11-08T23:22:39.427Z,1640.43
2022-11-08T23:25:08.452Z,1649.28
2022-11-08T23:27:54.206Z,1643.60
2022-11-08T23:30:39.679Z,1646.23
2022-11-08T23:33:09.108Z,1642.22
2022-11-08T23:35:37.377Z,1644.97
2022-11-08T23:38:05.364Z,1648.65
2022-11-08T23:40:50.957Z,1648.60
2022-11-08T23:43:38.324Z,1645.63
2022-11-08T23:46:08.536Z,1648.60
2022-11-08T23:48:38.789Z,1648.45
2022-11-08T23:51:07.766Z,1650.65
2022-11-08T23:53:37.700Z,1647.70
2022-11-08T23:56:06.727Z,1653.13
2022-11-08T23:58:35.059Z,1647.50
